Time;durP1;ratioP1;P1;durP2;ratioP2;P2;SDS_P1;SDS_P2;PMS_P1;PMS_P2;Temp;Humidity;BMP_temperature;BMP_pressure;BME280_temperature;BME280_humidity;BME280_pressure;Samples;Min_cycle;Max_cycle;Signal;HPM_P1;HPM_P2
2022/08/14 00:00:21;;;;;;;0.00;0.00;;;22.40;99.90;;;;;;5062218;28;20214;-80
2022/08/14 00:02:48;;;;;;;0.00;0.00;;;22.40;99.90;;;;;;5068138;28;20242;-78
2022/08/14 00:05:21;;;;;;;0.00;0.00;;;22.40;99.90;;;;;;5069242;28;20261;-84
2022/08/14 00:07:49;;;;;;;0.00;0.00;;;22.40;99.90;;;;;;5076260;28;20238;-81
2022/08/14 00:10:20;;;;;;;0.00;0.00;;;22.30;99.90;;;;;;5067875;28;20227;-79
2022/08/14 00:12:50;;;;;;;0.00;0.00;;;22.30;99.90;;;;;;5074873;28;20639;-82
2022/08/14 00:15:20;;;;;;;0.00;0.00;;;22.20;99.90;;;;;;5069901;28;20194;-79
2022/08/14 00:17:48;;;;;;;0.00;0.00;;;22.10;99.90;;;;;;5071748;28;20270;-78
2022/08/14 00:20:19;;;;;;;0.00;0.00;;;22.10;99.90;;;;;;5070861;28;20277;-78
2022/08/14 00:22:46;;;;;;;0.00;0.00;;;22.10;99.90;;;;;;5064143;28;20234;-78
2022/08/14 00:25:13;;;;;;;0.00;0.00;;;22.10;99.90;;;;;;5071314;28;20225;-78
2022/08/14 00:27:40;;;;;;;0.00;0.00;;;22.10;99.90;;;;;;5063857;28;20210;-79
2022/08/14 00:30:10;;;;;;;0.00;0.00;;;22.10;99.90;;;;;;5071244;28;20198;-78
2022/08/14 00:32:38;;;;;;;0.00;0.00;;;22.10;99.90;;;;;;5070687;28;20254;-79
2022/08/14 00:35:07;;;;;;;0.00;0.00;;;22.10;99.90;;;;;;5067901;28;20208;-80
2022/08/14 00:37:35;;;;;;;0.00;0.00;;;22.10;99.90;;;;;;5070874;28;20222;-78
2022/08/14 00:40:03;;;;;;;0.00;0.00;;;22.10;99.90;;;;;;5069612;28;20314;-78
2022/08/14 00:42:30;;;;;;;0.00;0.00;;;22.00;99.90;;;;;;5067219;28;20261;-79
2022/08/14 00:44:57;;;;;;;0.00;0.00;;;22.00;99.90;;;;;;5068536;28;20207;-82
2022/08/14 00:47:25;;;;;;;0.00;0.00;;;21.90;99.90;;;;;;5067138;28;20240;-78
2022/08/14 00:49:55;;;;;;;0.00;0.00;;;21.90;99.90;;;;;;5068387;28;20755;-78
2022/08/14 00:52:23;;;;;;;0.00;0.00;;;21.80;99.90;;;;;;5069218;28;20215;-78
2022/08/14 00:54:53;;;;;;;0.00;0.00;;;21.80;99.90;;;;;;5064677;28;20275;-78
2022/08/14 00:57:21;;;;;;;0.00;0.00;;;21.80;99.90;;;;;;5071694;28;20195;-78
2022/08/14 00:59:49;;;;;;;0.00;0.00;;;21.80;99.90;;;;;;5070776;28;20203;-78
2022/08/14 01:02:18;;;;;;;0.00;0.00;;;21.80;99.90;;;;;;5070655;28;20272;-79
2022/08/14 01:04:46;;;;;;;0.00;0.00;;;21.80;99.90;;;;;;5067230;28;20252;-84
2022/08/14 01:07:16;;;;;;;0.00;0.00;;;21.70;99.90;;;;;;5070587;28;20218;-80
2022/08/14 01:09:44;;;;;;;0.00;0.00;;;21.70;99.90;;;;;;5068251;28;20238;-78
2022/08/14 01:12:13;;;;;;;0.00;0.00;;;21.70;99.90;;;;;;5070714;28;20280;-78
2022/08/14 01:14:40;;;;;;;0.00;0.00;;;21.70;99.90;;;;;;5067585;28;20256;-85
2022/08/14 01:17:07;;;;;;;0.00;0.00;;;21.70;99.90;;;;;;5070673;28;20198;-79
2022/08/14 01:22:20;;;;;;;0.00;0.00;;;21.50;99.90;;;;;;5066818;28;20214;-82
2022/08/14 01:24:48;;;;;;;0.00;0.00;;;21.30;99.90;;;;;;5069625;28;20276;-78
2022/08/14 01:27:17;;;;;;;0.00;0.00;;;21.30;99.90;;;;;;5067282;28;20203;-82
2022/08/14 01:29:45;;;;;;;0.00;0.00;;;21.30;99.90;;;;;;5064394;28;20306;-78
2022/08/14 01:32:12;;;;;;;0.00;0.00;;;21.30;99.90;;;;;;5070781;28;20207;-78
2022/08/14 01:34:39;;;;;;;0.00;0.00;;;21.40;99.90;;;;;;5069883;28;20207;-81
2022/08/14 01:37:06;;;;;;;0.00;0.00;;;21.30;99.90;;;;;;5069422;28;20195;-78
2022/08/14 01:39:35;;;;;;;0.00;0.00;;;21.30;99.90;;;;;;5069194;28;20289;-79
2022/08/14 01:42:04;;;;;;;0.00;0.00;;;21.30;99.90;;;;;;5069546;28;20254;-78
2022/08/14 01:44:31;;;;;;;0.00;0.00;;;21.30;99.90;;;;;;5069145;28;20222;-78
2022/08/14 01:47:00;;;;;;;0.00;0.00;;;21.30;99.90;;;;;;5067604;28;20214;-79
2022/08/14 01:49:30;;;;;;;0.00;0.00;;;21.30;99.90;;;;;;5070234;28;20191;-78
2022/08/14 01:51:57;;;;;;;0.00;0.00;;;21.20;99.90;;;;;;5069778;28;20218;-78
2022/08/14 01:54:25;;;;;;;0.00;0.00;;;21.00;99.90;;;;;;5067765;28;20253;-81
2022/08/14 01:56:56;;;;;;;0.00;0.00;;;21.00;99.90;;;;;;5068661;28;20253;-78
2022/08/14 01:59:25;;;;;;;0.00;0.00;;;20.90;99.90;;;;;;5081789;28;20248;-81
2022/08/14 02:01:55;;;;;;;0.00;0.00;;;20.80;99.90;;;;;;5068805;28;20214;-84
2022/08/14 02:04:24;;;;;;;0.00;0.00;;;20.80;99.90;;;;;;5069526;28;20198;-78
2022/08/14 02:06:52;;;;;;;0.00;0.00;;;20.70;99.90;;;;;;5069061;28;20222;-78
2022/08/14 02:09:21;;;;;;;0.00;0.00;;;20.70;99.90;;;;;;5067139;28;20278;-82
2022/08/14 02:11:49;;;;;;;0.00;0.00;;;20.60;99.90;;;;;;5062910;28;20230;-78
2022/08/14 02:14:18;;;;;;;0.00;0.00;;;20.60;99.90;;;;;;5066766;28;20312;-79
2022/08/14 02:16:51;;;;;;;0.00;0.00;;;20.60;99.90;;;;;;5062713;28;20693;-82
2022/08/14 02:19:22;;;;;;;0.00;0.00;;;20.60;99.90;;;;;;5060983;28;20194;-79
2022/08/14 02:21:53;;;;;;;0.00;0.00;;;20.70;99.90;;;;;;5064733;28;20234;-84
2022/08/14 02:24:22;;;;;;;0.00;0.00;;;20.70;99.90;;;;;;5067465;28;20198;-78
2022/08/14 02:26:50;;;;;;;0.00;0.00;;;20.70;99.90;;;;;;5064434;28;20259;-80
2022/08/14 02:29:24;;;;;;;0.00;0.00;;;20.70;99.90;;;;;;5062704;28;20209;-81
2022/08/14 02:31:53;;;;;;;0.00;0.00;;;20.60;99.90;;;;;;5063891;28;20207;-80
2022/08/14 02:34:22;;;;;;;0.00;0.00;;;20.60;99.90;;;;;;5060248;28;20209;-78
2022/08/14 02:36:52;;;;;;;0.00;0.00;;;20.50;99.90;;;;;;5063905;28;20196;-80
2022/08/14 02:39:20;;;;;;;0.00;0.00;;;20.50;99.90;;;;;;5064267;28;20251;-83
2022/08/14 02:41:50;;;;;;;0.00;0.00;;;20.50;99.90;;;;;;5063889;28;20222;-78
2022/08/14 02:44:20;;;;;;;0.00;0.00;;;20.50;99.90;;;;;;5063899;28;20195;-82
2022/08/14 02:46:47;;;;;;;0.00;0.00;;;20.50;99.90;;;;;;5065114;28;20199;-79
2022/08/14 02:49:14;;;;;;;0.00;0.00;;;20.50;99.90;;;;;;5064471;28;20793;-84
2022/08/14 02:51:50;;;;;;;0.00;0.00;;;20.60;99.90;;;;;;5066403;28;20214;-77
2022/08/14 02:54:18;;;;;;;0.00;0.00;;;20.60;99.90;;;;;;5066441;28;20198;-81
2022/08/14 02:56:45;;;;;;;0.00;0.00;;;20.60;99.90;;;;;;5062776;28;20207;-80
2022/08/14 02:59:13;;;;;;;0.00;0.00;;;20.60;99.90;;;;;;5065099;28;20267;-80
2022/08/14 03:01:41;;;;;;;0.00;0.00;;;20.60;99.90;;;;;;5065789;28;20297;-77
2022/08/14 03:04:09;;;;;;;0.00;0.00;;;20.60;99.90;;;;;;5064857;28;20621;-80
2022/08/14 03:06:37;;;;;;;0.00;0.00;;;20.60;99.90;;;;;;5064850;28;20206;-80
2022/08/14 03:09:04;;;;;;;0.00;0.00;;;20.50;99.90;;;;;;5065250;28;20280;-80
2022/08/14 03:11:32;;;;;;;0.00;0.00;;;20.40;99.90;;;;;;5066667;28;20214;-80
2022/08/14 03:13:59;;;;;;;0.00;0.00;;;20.40;99.90;;;;;;5066040;28;20265;-81
2022/08/14 03:16:27;;;;;;;0.00;0.00;;;20.30;99.90;;;;;;5068327;28;20206;-80
2022/08/14 03:18:59;;;;;;;0.00;0.00;;;20.20;99.90;;;;;;5067192;28;20281;-80
2022/08/14 03:21:30;;;;;;;0.00;0.00;;;20.10;99.90;;;;;;5065798;28;20783;-80
2022/08/14 03:24:06;;;;;;;0.00;0.00;;;20.10;99.90;;;;;;5064892;28;20203;-80
2022/08/14 03:26:33;;;;;;;0.00;0.00;;;20.10;99.90;;;;;;5063902;28;20201;-78
2022/08/14 03:29:01;;;;;;;0.00;0.00;;;20.00;99.90;;;;;;5068060;28;20209;-79
2022/08/14 03:31:29;;;;;;;0.00;0.00;;;20.10;99.90;;;;;;5066735;28;20300;-80
2022/08/14 03:33:58;;;;;;;0.00;0.00;;;20.00;99.90;;;;;;5062193;28;20230;-80
2022/08/14 03:36:25;;;;;;;0.00;0.00;;;20.10;99.90;;;;;;5066519;28;20191;-80
2022/08/14 03:38:56;;;;;;;0.00;0.00;;;20.10;99.90;;;;;;5061320;28;20215;-78
2022/08/14 03:41:25;;;;;;;0.00;0.00;;;20.10;99.90;;;;;;5062458;28;20227;-79
2022/08/14 03:43:55;;;;;;;0.00;0.00;;;20.10;99.90;;;;;;5069750;28;20203;-80
2022/08/14 03:46:23;;;;;;;0.00;0.00;;;20.20;99.90;;;;;;5070152;28;20194;-82
2022/08/14 03:48:52;;;;;;;0.00;0.00;;;20.20;99.90;;;;;;5066165;28;20207;-79
2022/08/14 03:51:27;;;;;;;0.00;0.00;;;20.20;99.90;;;;;;5071773;28;20218;-79
2022/08/14 03:53:56;;;;;;;0.00;0.00;;;20.20;99.90;;;;;;5068323;28;20234;-80
2022/08/14 03:56:24;;;;;;;0.00;0.00;;;20.10;99.90;;;;;;5071815;28;20199;-80
2022/08/14 03:58:54;;;;;;;0.00;0.00;;;20.00;99.90;;;;;;5068274;28;20252;-80
2022/08/14 04:01:23;;;;;;;0.00;0.00;;;20.00;99.90;;;;;;5065654;28;20245;-80
2022/08/14 04:03:53;;;;;;;0.00;0.00;;;20.00;99.90;;;;;;5068105;28;20237;-80
2022/08/14 04:06:21;;;;;;;0.00;0.00;;;20.00;99.90;;;;;;5068064;28;20202;-81
2022/08/14 04:08:49;;;;;;;0.00;0.00;;;20.00;99.90;;;;;;5067790;28;20301;-80
2022/08/14 04:11:17;;;;;;;0.00;0.00;;;20.00;99.90;;;;;;5068172;28;20219;-81
2022/08/14 04:13:45;;;;;;;0.00;0.00;;;20.00;99.90;;;;;;5064823;28;20209;-80
2022/08/14 04:16:15;;;;;;;0.00;0.00;;;19.90;99.90;;;;;;5066553;28;20198;-80
2022/08/14 04:18:44;;;;;;;0.00;0.00;;;19.90;99.90;;;;;;5068824;28;20198;-80
2022/08/14 04:21:12;;;;;;;0.00;0.00;;;19.90;99.90;;;;;;5064910;28;20226;-80
2022/08/14 04:23:41;;;;;;;0.00;0.00;;;19.90;99.90;;;;;;5063913;28;20218;-81
2022/08/14 04:26:10;;;;;;;0.00;0.00;;;19.90;99.90;;;;;;5065310;28;20203;-78
2022/08/14 04:28:39;;;;;;;0.00;0.00;;;19.90;99.90;;;;;;5066769;28;20293;-81
2022/08/14 04:31:06;;;;;;;0.00;0.00;;;19.90;99.90;;;;;;5065482;28;20227;-80
2022/08/14 04:33:35;;;;;;;0.00;0.00;;;19.80;99.90;;;;;;5068607;28;20222;-81
2022/08/14 04:36:02;;;;;;;0.00;0.00;;;19.90;99.90;;;;;;5067345;28;20202;-80
2022/08/14 04:44:01;;;;;;;0.00;0.00;;;20.00;99.90;;;;;;5066933;28;20209;-80
2022/08/14 04:46:28;;;;;;;0.00;0.00;;;20.00;99.90;;;;;;5067587;28;20252;-81
2022/08/14 04:48:54;;;;;;;0.00;0.00;;;20.10;99.90;;;;;;5073017;28;20202;-80
2022/08/14 04:51:24;;;;;;;0.00;0.00;;;20.00;99.90;;;;;;5080926;28;20248;-80
2022/08/14 04:53:52;;;;;;;0.00;0.00;;;20.00;99.90;;;;;;5080047;28;20202;-80
2022/08/14 04:56:22;;;;;;;0.00;0.00;;;20.00;99.90;;;;;;5077281;28;20229;-80
2022/08/14 04:58:54;;;;;;;0.00;0.00;;;20.00;99.90;;;;;;5070219;28;20260;-80
2022/08/14 05:01:21;;;;;;;0.00;0.00;;;20.00;99.90;;;;;;5071833;28;20237;-81
2022/08/14 05:03:48;;;;;;;0.00;0.00;;;20.00;99.90;;;;;;5071634;28;20229;-80
2022/08/14 05:06:15;;;;;;;0.00;0.00;;;19.90;99.90;;;;;;5070480;28;20198;-79
2022/08/14 05:08:43;;;;;;;0.00;0.00;;;19.90;99.90;;;;;;5064320;28;20210;-80
2022/08/14 05:11:10;;;;;;;0.00;0.00;;;20.00;99.90;;;;;;5070738;28;20222;-81
2022/08/14 05:13:39;;;;;;;0.00;0.00;;;19.90;99.90;;;;;;5067561;28;20226;-80
2022/08/14 05:16:07;;;;;;;0.00;0.00;;;19.90;99.90;;;;;;5068706;28;20194;-80
2022/08/14 05:18:36;;;;;;;0.00;0.00;;;20.00;99.90;;;;;;5073524;28;20249;-80
2022/08/14 05:21:05;;;;;;;0.00;0.00;;;20.10;99.90;;;;;;5069006;28;20227;-80
2022/08/14 05:23:38;;;;;;;0.00;0.00;;;19.90;99.90;;;;;;5065527;28;20671;-80
2022/08/14 05:26:11;;;;;;;0.00;0.00;;;20.00;99.90;;;;;;5066393;28;20810;-80
2022/08/14 05:28:44;;;;;;;0.00;0.00;;;20.00;99.90;;;;;;5064943;28;20299;-81
2022/08/14 05:31:14;;;;;;;0.00;0.00;;;20.10;99.90;;;;;;5069220;28;20229;-81
2022/08/14 05:33:41;;;;;;;0.00;0.00;;;20.20;99.90;;;;;;5067752;28;20205;-80
2022/08/14 05:36:10;;;;;;;0.00;0.00;;;20.20;99.90;;;;;;5067799;28;20207;-79
2022/08/14 05:38:40;;;;;;;0.00;0.00;;;20.30;99.90;;;;;;5067953;28;20206;-80
2022/08/14 05:41:11;;;;;;;0.00;0.00;;;20.30;99.90;;;;;;5063477;28;20254;-81
2022/08/14 05:43:40;;;;;;;0.00;0.00;;;20.40;99.90;;;;;;5066984;28;20230;-81
2022/08/14 05:46:09;;;;;;;0.00;0.00;;;20.40;99.90;;;;;;5067659;28;20206;-80
2022/08/14 05:48:36;;;;;;;0.00;0.00;;;20.50;99.90;;;;;;5067790;28;20623;-81
2022/08/14 05:51:03;;;;;;;0.00;0.00;;;20.60;99.90;;;;;;5067996;28;20214;-81
2022/08/14 05:53:31;;;;;;;0.00;0.00;;;20.50;99.90;;;;;;5067604;28;20199;-80
2022/08/14 05:55:59;;;;;;;0.00;0.00;;;20.50;99.90;;;;;;5066139;28;20203;-80
2022/08/14 05:58:26;;;;;;;0.00;0.00;;;20.60;99.90;;;;;;5081396;28;20195;-80
2022/08/14 06:00:56;;;;;;;0.00;0.00;;;20.60;99.90;;;;;;5064368;28;20225;-80
2022/08/14 06:03:24;;;;;;;0.00;0.00;;;20.50;99.90;;;;;;5066199;28;20218;-80
2022/08/14 06:05:54;;;;;;;0.00;0.00;;;20.60;99.90;;;;;;5062431;28;20289;-80
2022/08/14 06:08:24;;;;;;;0.00;0.00;;;20.70;99.90;;;;;;5066096;28;20244;-80
2022/08/14 06:10:52;;;;;;;0.00;0.00;;;20.80;99.90;;;;;;5065256;28;20222;-80
2022/08/14 06:13:20;;;;;;;0.00;0.00;;;20.80;99.90;;;;;;5065133;28;20205;-79
2022/08/14 06:15:49;;;;;;;0.00;0.00;;;20.80;99.90;;;;;;5065955;28;20213;-80
2022/08/14 06:18:18;;;;;;;0.00;0.00;;;20.90;99.90;;;;;;5066576;28;20195;-80
2022/08/14 06:20:45;;;;;;;0.00;0.00;;;21.00;99.90;;;;;;5064448;28;20230;-79
2022/08/14 06:23:12;;;;;;;0.00;0.00;;;21.00;99.90;;;;;;5067070;28;20214;-80
2022/08/14 06:25:39;;;;;;;0.00;0.00;;;21.00;99.90;;;;;;5067036;28;20198;-80
2022/08/14 06:28:06;;;;;;;0.00;0.00;;;21.10;99.90;;;;;;5062579;28;20198;-82
2022/08/14 06:30:34;;;;;;;0.00;0.00;;;21.10;99.90;;;;;;5070189;28;20206;-81
2022/08/14 06:33:01;;;;;;;0.00;0.00;;;21.10;99.90;;;;;;5069868;28;20202;-80
2022/08/14 06:35:30;;;;;;;0.00;0.00;;;21.20;99.90;;;;;;5063692;28;20293;-80
2022/08/14 06:38:00;;;;;;;0.00;0.00;;;21.20;99.90;;;;;;5064067;28;20202;-80
2022/08/14 06:40:30;;;;;;;0.00;0.00;;;21.40;99.90;;;;;;5063975;28;20210;-81
2022/08/14 06:42:59;;;;;;;0.00;0.00;;;21.50;99.90;;;;;;5071734;28;20214;-80
2022/08/14 06:45:27;;;;;;;0.00;0.00;;;21.70;99.90;;;;;;5066866;28;20237;-80
2022/08/14 06:47:55;;;;;;;0.00;0.00;;;21.70;99.90;;;;;;5067135;28;20579;-80
2022/08/14 06:50:24;;;;;;;0.00;0.00;;;21.80;99.90;;;;;;5066719;28;20198;-79
2022/08/14 06:52:52;;;;;;;0.00;0.00;;;22.00;99.90;;;;;;5063364;28;20206;-79
2022/08/14 06:55:21;;;;;;;0.00;0.00;;;22.20;99.90;;;;;;5061784;28;20207;-79
2022/08/14 06:57:50;;;;;;;0.00;0.00;;;22.20;99.90;;;;;;5065181;28;20217;-78
2022/08/14 07:00:19;;;;;;;0.00;0.00;;;22.30;99.90;;;;;;5066734;28;20203;-80
2022/08/14 07:05:47;;;;;;;0.00;0.00;;;22.80;99.90;;;;;;5064448;28;20209;-81
2022/08/14 07:08:17;;;;;;;0.00;0.00;;;23.20;99.90;;;;;;5065840;28;20202;-81
2022/08/14 07:10:46;;;;;;;0.00;0.00;;;23.50;99.90;;;;;;5066447;28;20253;-81
2022/08/14 07:13:14;;;;;;;0.00;0.00;;;23.80;99.90;;;;;;5066836;28;20287;-80
2022/08/14 07:15:41;;;;;;;0.00;0.00;;;24.00;99.90;;;;;;5067792;28;20209;-80
2022/08/14 07:18:09;;;;;;;0.00;0.00;;;24.20;99.90;;;;;;5073107;28;20198;-80
2022/08/14 07:20:38;;;;;;;0.00;0.00;;;24.30;99.90;;;;;;5071515;28;20206;-81
2022/08/14 07:23:07;;;;;;;0.00;0.00;;;24.50;99.90;;;;;;5067741;28;20222;-79
2022/08/14 07:25:36;;;;;;;0.00;0.00;;;24.70;99.90;;;;;;5073538;28;20205;-80
2022/08/14 07:28:09;;;;;;;0.00;0.00;;;25.10;99.90;;;;;;5073815;28;20198;-80
2022/08/14 07:30:37;;;;;;;0.00;0.00;;;25.30;99.90;;;;;;5071035;28;20558;-80
2022/08/14 07:33:04;;;;;;;0.00;0.00;;;25.60;99.90;;;;;;5079848;28;20202;-80
2022/08/14 07:35:32;;;;;;;0.00;0.00;;;25.90;99.90;;;;;;5075169;28;20661;-77
2022/08/14 07:38:01;;;;;;;0.00;0.00;;;26.00;99.90;;;;;;5079942;28;20201;-80
2022/08/14 07:40:28;;;;;;;0.00;0.00;;;26.20;99.90;;;;;;5076727;28;20202;-79
2022/08/14 07:42:57;;;;;;;0.00;0.00;;;26.10;99.90;;;;;;5090275;28;20210;-79
2022/08/14 07:45:24;;;;;;;0.00;0.00;;;26.10;99.90;;;;;;5088404;28;20649;-79
2022/08/14 07:47:52;;;;;;;0.00;0.00;;;;;;;;;;5070443;28;20648;-79
2022/08/14 07:50:20;;;;;;;0.00;0.00;;;26.20;99.90;;;;;;5073122;28;20190;-79
2022/08/14 07:52:49;;;;;;;0.00;0.00;;;26.50;99.90;;;;;;5071433;28;20229;-79
2022/08/14 07:55:17;;;;;;;0.00;0.00;;;26.70;99.90;;;;;;5073846;28;20248;-80
2022/08/14 07:57:46;;;;;;;0.00;0.00;;;26.90;99.90;;;;;;5074872;28;20229;-81
2022/08/14 08:00:21;;;;;;;0.00;0.00;;;27.00;99.90;;;;;;5076372;28;20202;-81
2022/08/14 08:02:51;;;;;;;0.00;0.00;;;27.20;99.90;;;;;;5075534;28;20226;-81
2022/08/14 08:05:20;;;;;;;0.00;0.00;;;27.30;99.90;;;;;;5076189;28;20207;-80
2022/08/14 08:07:48;;;;;;;0.00;0.00;;;;;;;;;;5079367;28;20212;-78
2022/08/14 08:10:33;;;;;;;0.00;0.00;;;27.30;99.90;;;;;;5078112;28;20268;-81
2022/08/14 08:13:02;;;;;;;0.00;0.00;;;27.50;99.90;;;;;;5072266;28;20198;-81
2022/08/14 08:15:35;;;;;;;0.00;0.00;;;27.40;99.90;;;;;;5072545;28;20244;-80
2022/08/14 08:18:03;;;;;;;0.00;0.00;;;27.40;99.90;;;;;;5072722;28;20293;-80
2022/08/14 08:20:33;;;;;;;0.00;0.00;;;27.40;99.90;;;;;;5072572;28;20210;-80
2022/08/14 08:23:01;;;;;;;0.00;0.00;;;27.30;99.90;;;;;;5072166;28;20279;-80
2022/08/14 08:25:30;;;;;;;0.00;0.00;;;27.20;99.90;;;;;;5072681;28;20656;-81
2022/08/14 08:27:59;;;;;;;0.00;0.00;;;27.20;99.90;;;;;;5069284;28;20207;-81
2022/08/14 08:30:28;;;;;;;0.00;0.00;;;27.30;99.90;;;;;;5069185;28;20190;-80
2022/08/14 08:32:58;;;;;;;0.00;0.00;;;;;;;;;;5066511;28;20242;-79
2022/08/14 08:35:27;;;;;;;0.00;0.00;;;27.60;99.90;;;;;;5069262;28;20198;-78
2022/08/14 08:37:55;;;;;;;0.00;0.00;;;;;;;;;;5070011;28;20202;-80
2022/08/14 08:40:24;;;;;;;0.00;0.00;;;27.60;99.90;;;;;;5070594;28;20198;-79
2022/08/14 08:42:51;;;;;;;0.00;0.00;;;27.70;99.90;;;;;;5068977;28;20229;-78
2022/08/14 08:45:19;;;;;;;0.00;0.00;;;27.60;99.90;;;;;;5070565;28;20214;-78
2022/08/14 08:47:46;;;;;;;0.00;0.00;;;27.50;99.90;;;;;;5068847;28;20195;-78
2022/08/14 08:50:24;;;;;;;0.00;0.00;;;27.40;99.90;;;;;;5067808;28;20614;-77
2022/08/14 08:52:54;;;;;;;0.00;0.00;;;27.30;99.90;;;;;;5089029;22;20221;-67
2022/08/14 08:55:28;;;;;;;0.00;0.00;;;27.40;99.90;;;;;;5086926;28;20189;-67
2022/08/14 08:57:58;;;;;;;0.00;0.00;;;27.40;99.90;;;;;;5083820;28;20197;-67
2022/08/14 09:00:25;;;;;;;0.00;0.00;;;27.40;99.90;;;;;;5083212;28;20206;-68
2022/08/14 09:02:56;;;;;;;0.00;0.00;;;27.50;99.90;;;;;;5087499;28;20233;-68
2022/08/14 09:05:25;;;;;;;0.00;0.00;;;27.50;99.90;;;;;;5086643;28;20209;-68
2022/08/14 09:07:52;;;;;;;0.00;0.00;;;;;;;;;;5082133;28;20198;-67
2022/08/14 09:10:19;;;;;;;0.00;0.00;;;;;;;;;;5080329;28;20527;-67
2022/08/14 09:12:47;;;;;;;0.00;0.00;;;;;;;;;;5088053;28;20226;-68
2022/08/14 09:15:14;;;;;;;0.00;0.00;;;27.70;99.90;;;;;;5082918;28;20249;-68
2022/08/14 09:17:43;;;;;;;0.00;0.00;;;27.80;99.90;;;;;;5079093;28;20206;-67
2022/08/14 09:20:12;;;;;;;0.00;0.00;;;28.20;99.90;;;;;;5086370;28;20206;-67
2022/08/14 09:22:42;;;;;;;0.00;0.00;;;28.20;99.90;;;;;;5080971;28;20258;-69
2022/08/14 09:25:09;;;;;;;0.00;0.00;;;28.50;99.90;;;;;;5084663;28;20267;-69
2022/08/14 09:27:37;;;;;;;0.00;0.00;;;28.40;99.90;;;;;;5078201;28;20211;-70
2022/08/14 09:30:08;;;;;;;0.00;0.00;;;28.50;99.90;;;;;;5079616;28;20206;-69
2022/08/14 09:32:58;;;;;;;0.00;0.00;;;28.50;99.90;;;;;;5084548;28;20206;-67
2022/08/14 09:35:35;;;;;;;0.00;0.00;;;28.50;99.90;;;;;;5082697;28;20214;-67
2022/08/14 09:38:11;;;;;;;0.00;0.00;;;28.50;99.90;;;;;;5077474;28;20223;-67
2022/08/14 09:40:47;;;;;;;0.00;0.00;;;28.60;99.90;;;;;;5077967;28;20228;-66
2022/08/14 09:43:26;;;;;;;0.00;0.00;;;28.60;99.90;;;;;;5081220;28;20213;-68
2022/08/14 09:45:57;;;;;;;0.00;0.00;;;28.80;99.90;;;;;;5087465;28;20204;-68
2022/08/14 09:48:27;;;;;;;0.00;0.00;;;29.30;99.90;;;;;;5089608;28;20190;-69
2022/08/14 09:50:58;;;;;;;0.00;0.00;;;;;;;;;;5083279;28;20198;-68
2022/08/14 09:54:05;;;;;;;0.00;0.00;;;;;;;;;;5092247;28;20305;-68
2022/08/14 09:59:48;;;;;;;0.00;0.00;;;;;;;;;;5044132;28;20202;-70
2022/08/14 10:02:21;;;;;;;0.00;0.00;;;;;;;;;;5090429;28;20247;-66
2022/08/14 10:04:59;;;;;;;0.00;0.00;;;;;;;;;;5087631;28;20214;-67
2022/08/14 10:07:30;;;;;;;0.00;0.00;;;;;;;;;;5087392;28;20194;-67
2022/08/14 10:09:59;;;;;;;0.00;0.00;;;;;;;;;;5087799;28;20724;-68
2022/08/14 10:12:29;;;;;;;0.00;0.00;;;;;;;;;;5085046;28;20204;-67
2022/08/14 10:14:59;;;;;;;0.00;0.00;;;;;;;;;;5086251;28;20201;-67
2022/08/14 10:17:28;;;;;;;0.00;0.00;;;;;;;;;;5081958;28;20198;-68
2022/08/14 10:19:55;;;;;;;0.00;0.00;;;;;;;;;;5094506;28;20193;-67
2022/08/14 10:22:29;;;;;;;0.00;0.00;;;;;;;;;;5079858;28;20295;-67
2022/08/14 10:24:57;;;;;;;0.00;0.00;;;;;;;;;;5082470;28;20226;-67
2022/08/14 10:27:26;;;;;;;0.00;0.00;;;;;;;;;;5082477;28;20277;-67
2022/08/14 10:29:54;;;;;;;0.00;0.00;;;;;;;;;;5083946;28;20194;-67
2022/08/14 10:32:24;;;;;;;0.00;0.00;;;30.60;99.90;;;;;;5088355;28;20189;-67
2022/08/14 10:34:52;;;;;;;0.00;0.00;;;;;;;;;;5089958;28;20206;-68
2022/08/14 10:37:20;;;;;;;0.00;0.00;;;;;;;;;;5084512;28;20280;-67
2022/08/14 10:39:58;;;;;;;0.00;0.00;;;;;;;;;;5088521;28;20570;-68
2022/08/14 10:42:35;;;;;;;0.00;0.00;;;;;;;;;;5087665;28;20692;-66
2022/08/14 10:45:02;;;;;;;0.00;0.00;;;;;;;;;;5084097;28;20244;-70
2022/08/14 10:47:36;;;;;;;0.00;0.00;;;;;;;;;;5089253;28;20200;-68
2022/08/14 10:50:05;;;;;;;0.00;0.00;;;;;;;;;;5085273;28;20208;-67
2022/08/14 10:52:34;;;;;;;0.00;0.00;;;;;;;;;;5091951;28;20245;-67
2022/08/14 10:55:12;;;;;;;0.00;0.00;;;;;;;;;;5089397;28;20308;-68
2022/08/14 10:57:50;;;;;;;0.00;0.00;;;;;;;;;;5089892;28;20288;-69
2022/08/14 11:00:19;;;;;;;0.00;0.00;;;;;;;;;;5092322;28;20555;-68
2022/08/14 11:02:57;;;;;;;0.00;0.00;;;31.10;99.90;;;;;;5086957;28;20230;-68
2022/08/14 11:05:25;;;;;;;0.00;0.00;;;31.20;99.90;;;;;;5082894;28;20249;-69
2022/08/14 11:07:59;;;;;;;0.00;0.00;;;31.20;99.90;;;;;;5087517;28;20213;-69
2022/08/14 11:10:39;;;;;;;0.00;0.00;;;31.20;99.90;;;;;;5088993;28;20232;-69
2022/08/14 11:13:07;;;;;;;0.00;0.00;;;31.20;99.90;;;;;;5088578;28;20220;-69
2022/08/14 11:15:35;;;;;;;0.00;0.00;;;;;;;;;;5083494;28;20186;-68
2022/08/14 11:18:04;;;;;;;0.00;0.00;;;31.50;99.90;;;;;;5073605;28;20202;-69
2022/08/14 11:20:31;;;;;;;0.00;0.00;;;31.60;99.90;;;;;;5083213;28;20200;-68
2022/08/14 11:23:00;;;;;;;0.00;0.00;;;31.80;99.90;;;;;;5084213;28;20249;-68
2022/08/14 11:25:30;;;;;;;0.00;0.00;;;32.00;99.90;;;;;;5082385;28;20230;-68
2022/08/14 11:27:59;;;;;;;0.00;0.00;;;;;;;;;;5088282;28;20197;-67
2022/08/14 11:30:29;;;;;;;0.00;0.00;;;32.10;99.90;;;;;;5086072;28;20224;-68
2022/08/14 11:32:57;;;;;;;0.00;0.00;;;31.80;99.90;;;;;;5089217;28;20304;-68
2022/08/14 11:35:27;;;;;;;0.00;0.00;;;31.60;99.90;;;;;;5087033;28;20201;-68
2022/08/14 11:37:58;;;;;;;0.00;0.00;;;31.40;99.90;;;;;;5082764;28;20224;-69
2022/08/14 11:40:27;;;;;;;0.00;0.00;;;31.50;99.90;;;;;;5081219;28;20199;-68
2022/08/14 11:42:55;;;;;;;0.00;0.00;;;;;;;;;;5090329;28;20762;-67
2022/08/14 11:45:24;;;;;;;0.00;0.00;;;;;;;;;;5083223;28;20222;-68
2022/08/14 11:47:53;;;;;;;0.00;0.00;;;;;;;;;;5079851;28;20216;-68
2022/08/14 11:50:23;;;;;;;0.00;0.00;;;;;;;;;;5079106;28;20203;-68
2022/08/14 11:52:55;;;;;;;0.00;0.00;;;;;;;;;;5081002;28;20241;-67
2022/08/14 11:55:25;;;;;;;0.00;0.00;;;;;;;;;;5076161;28;20201;-68
2022/08/14 11:58:00;;;;;;;0.00;0.00;;;;;;;;;;5074449;28;20197;-67
2022/08/14 12:00:27;;;;;;;0.00;0.00;;;;;;;;;;5080402;28;20255;-70
2022/08/14 12:02:56;;;;;;;0.00;0.00;;;;;;;;;;5099410;28;20218;-67
2022/08/14 12:05:31;;;;;;;0.00;0.00;;;31.30;99.90;;;;;;5087432;28;20302;-68
2022/08/14 12:08:00;;;;;;;0.00;0.00;;;31.40;99.90;;;;;;5087038;28;20207;-70
2022/08/14 12:10:28;;;;;;;0.00;0.00;;;31.40;99.90;;;;;;5087152;28;20204;-68
2022/08/14 12:12:56;;;;;;;0.00;0.00;;;31.40;99.90;;;;;;5089255;28;20218;-68
2022/08/14 12:15:31;;;;;;;0.00;0.00;;;31.50;99.90;;;;;;5090228;28;20205;-68
2022/08/14 12:17:59;;;;;;;0.00;0.00;;;;;;;;;;5086444;28;20205;-68
2022/08/14 12:20:31;;;;;;;0.00;0.00;;;;;;;;;;5082196;28;20578;-69
2022/08/14 12:23:01;;;;;;;0.00;0.00;;;;;;;;;;5077356;28;20229;-68
2022/08/14 12:25:29;;;;;;;0.00;0.00;;;;;;;;;;5089654;28;20214;-68
2022/08/14 12:27:58;;;;;;;0.00;0.00;;;;;;;;;;5087072;28;20186;-68
2022/08/14 12:30:30;;;;;;;0.00;0.00;;;;;;;;;;5086959;28;20206;-67
2022/08/14 12:32:57;;;;;;;0.00;0.00;;;;;;;;;;5097999;28;20241;-69
2022/08/14 12:35:36;;;;;;;0.00;0.00;;;;;;;;;;5090922;28;20190;-68
2022/08/14 12:38:04;;;;;;;0.00;0.00;;;;;;;;;;5101856;28;20284;-68
2022/08/14 12:40:32;;;;;;;0.00;0.00;;;;;;;;;;5089689;28;20193;-70
2022/08/14 12:43:03;;;;;;;0.00;0.00;;;;;;;;;;5097476;28;20224;-70
2022/08/14 12:45:32;;;;;;;0.00;0.00;;;;;;;;;;5089268;28;20785;-69
2022/08/14 12:48:02;;;;;;;0.00;0.00;;;;;;;;;;5084040;28;20251;-68
2022/08/14 12:50:41;;;;;;;0.00;0.00;;;;;;;;;;5090417;28;20201;-68
2022/08/14 12:53:10;;;;;;;0.00;0.00;;;;;;;;;;5084628;28;20233;-68
2022/08/14 12:55:38;;;;;;;0.00;0.00;;;;;;;;;;5092378;28;20288;-68
2022/08/14 12:58:05;;;;;;;0.00;0.00;;;;;;;;;;5082287;28;20194;-68
2022/08/14 13:00:34;;;;;;;0.00;0.00;;;;;;;;;;5079353;28;20201;-68
2022/08/14 13:03:03;;;;;;;0.00;0.00;;;;;;;;;;5085542;28;20226;-67
2022/08/14 13:05:34;;;;;;;0.00;0.00;;;31.90;99.90;;;;;;5084749;28;20274;-66
2022/08/14 13:08:05;;;;;;;0.00;0.00;;;31.90;99.90;;;;;;5083325;28;20209;-68
2022/08/14 13:10:34;;;;;;;0.00;0.00;;;32.00;99.90;;;;;;5085722;28;20289;-68
2022/08/14 13:13:02;;;;;;;0.00;0.00;;;32.00;99.90;;;;;;5085757;28;20246;-68
2022/08/14 13:15:29;;;;;;;0.00;0.00;;;31.90;99.90;;;;;;5083085;28;20204;-68
2022/08/14 13:17:59;;;;;;;0.00;0.00;;;32.00;99.90;;;;;;5084009;28;20278;-68
2022/08/14 13:20:27;;;;;;;0.00;0.00;;;32.00;99.90;;;;;;5080979;28;20186;-71
2022/08/14 13:22:55;;;;;;;0.00;0.00;;;32.00;99.90;;;;;;5080314;28;20237;-70
2022/08/14 13:25:24;;;;;;;0.00;0.00;;;31.90;99.90;;;;;;5086819;28;20222;-67
2022/08/14 13:27:54;;;;;;;0.00;0.00;;;31.90;99.90;;;;;;5084767;28;20205;-68
2022/08/14 13:30:23;;;;;;;0.00;0.00;;;31.90;99.90;;;;;;5084134;28;20296;-68
2022/08/14 13:32:51;;;;;;;0.00;0.00;;;31.80;99.90;;;;;;5091460;28;20225;-67